Time;durP1;ratioP1;P1;durP2;ratioP2;P2;SDS_P1;SDS_P2;PMS_P1;PMS_P2;Temp;Humidity;BMP_temperature;BMP_pressure;BME280_temperature;BME280_humidity;BME280_pressure;Samples;Min_cycle;Max_cycle;Signal;HPM_P1;HPM_P2
2021/08/21 00:01:21;;;;;;;2.35;1.50;;;16.80;99.90;;;;;;5016066;28;20212;-87
2021/08/21 00:03:46;;;;;;;2.50;1.70;;;16.80;99.90;;;;;;5015960;28;20184;-87
2021/08/21 00:06:12;;;;;;;1.73;1.60;;;16.70;99.90;;;;;;5033534;28;20204;-87
2021/08/21 00:08:38;;;;;;;2.53;1.80;;;16.70;99.90;;;;;;4999640;28;20187;-88
2021/08/21 00:11:04;;;;;;;2.70;1.98;;;;;;;;;;4999585;28;20187;-88
2021/08/21 00:13:30;;;;;;;4.15;2.13;;;16.70;99.90;;;;;;5033399;28;20184;-88
2021/08/21 00:15:55;;;;;;;2.75;2.00;;;16.70;99.90;;;;;;4999488;28;20695;-88
2021/08/21 00:18:22;;;;;;;2.67;1.95;;;;;;;;;;5033159;28;20255;-88
2021/08/21 00:20:48;;;;;;;3.10;2.10;;;16.40;99.90;;;;;;5015850;28;20180;-88
2021/08/21 00:23:13;;;;;;;2.53;1.70;;;16.70;99.90;;;;;;5015690;28;20242;-88
2021/08/21 00:25:39;;;;;;;3.30;2.20;;;16.80;99.90;;;;;;5016042;28;20212;-88
2021/08/21 00:28:05;;;;;;;3.80;2.13;;;16.80;99.90;;;;;;4999355;28;20200;-88
2021/08/21 00:30:31;;;;;;;3.35;2.00;;;;;;;;;;5033019;28;20669;-88
2021/08/21 00:32:56;;;;;;;2.97;2.20;;;16.70;99.90;;;;;;5015819;28;20199;-87
2021/08/21 00:35:22;;;;;;;2.75;2.13;;;16.70;99.90;;;;;;4999207;28;20645;-87
2021/08/21 00:37:50;;;;;;;3.03;2.03;;;;;;;;;;4999474;28;20195;-87
2021/08/21 00:40:16;;;;;;;2.40;2.20;;;16.70;99.90;;;;;;5033086;28;20177;-87
2021/08/21 00:42:42;;;;;;;2.78;2.10;;;;;;;;;;5033134;28;20633;-88
2021/08/21 00:45:09;;;;;;;2.92;2.30;;;16.60;99.90;;;;;;5019396;28;20180;-87
2021/08/21 00:47:35;;;;;;;4.93;2.60;;;16.50;99.90;;;;;;5019472;28;20680;-87
2021/08/21 00:50:01;;;;;;;3.83;2.38;;;15.80;99.90;;;;;;5019595;28;20226;-87
2021/08/21 00:52:29;;;;;;;4.97;2.70;;;16.50;99.90;;;;;;5019056;28;20199;-88
2021/08/21 00:54:56;;;;;;;3.65;2.53;;;16.50;99.90;;;;;;5037917;28;20235;-87
2021/08/21 00:57:23;;;;;;;3.13;2.22;;;16.50;99.90;;;;;;5003239;28;20215;-87
2021/08/21 00:59:51;;;;;;;4.32;2.58;;;16.40;99.90;;;;;;5037571;28;20237;-88
2021/08/21 01:02:18;;;;;;;3.38;2.30;;;16.40;99.90;;;;;;5036874;28;20165;-87
2021/08/21 01:04:52;;;;;;;4.45;2.72;;;16.20;99.90;;;;;;5037493;28;20180;-87
2021/08/21 01:07:20;;;;;;;2.88;2.25;;;16.30;99.90;;;;;;5019045;28;20231;-87
2021/08/21 01:09:46;;;;;;;3.47;2.80;;;16.30;99.90;;;;;;5037040;28;20185;-87
2021/08/21 01:12:14;;;;;;;3.20;2.90;;;16.30;99.90;;;;;;5037040;28;20641;-88
2021/08/21 01:14:41;;;;;;;2.65;2.25;;;16.30;99.90;;;;;;5036568;28;20195;-86
2021/08/21 01:17:10;;;;;;;2.95;2.40;;;16.20;99.90;;;;;;5036634;28;20183;-87
2021/08/21 01:19:38;;;;;;;3.80;2.22;;;16.10;99.90;;;;;;5036597;28;20172;-87
2021/08/21 01:22:12;;;;;;;3.60;3.20;;;16.10;99.90;;;;;;5036415;28;20596;-87
2021/08/21 01:24:39;;;;;;;3.35;3.00;;;16.00;99.90;;;;;;5036288;28;20230;-87
2021/08/21 01:27:05;;;;;;;4.05;3.22;;;16.00;99.90;;;;;;5036460;28;20189;-86
2021/08/21 01:29:31;;;;;;;3.92;3.47;;;15.90;99.90;;;;;;5019025;28;20230;-86
2021/08/21 01:31:57;;;;;;;5.78;3.92;;;15.90;99.90;;;;;;5018684;28;20232;-87
2021/08/21 01:34:23;;;;;;;8.15;5.15;;;15.90;99.90;;;;;;5018840;28;20177;-86
2021/08/21 01:36:50;;;;;;;6.03;4.28;;;15.80;99.90;;;;;;5036507;28;20280;-86
2021/08/21 01:39:17;;;;;;;8.07;4.57;;;15.80;99.90;;;;;;5002038;28;20246;-87
2021/08/21 01:41:43;;;;;;;7.68;4.97;;;15.80;99.90;;;;;;5036428;28;20177;-87
2021/08/21 01:44:18;;;;;;;6.70;5.40;;;15.80;99.90;;;;;;5018487;28;20188;-87
2021/08/21 01:46:48;;;;;;;7.43;5.75;;;15.80;99.90;;;;;;5018593;28;20212;-87
2021/08/21 01:49:16;;;;;;;8.98;5.60;;;15.80;99.90;;;;;;5018932;28;20692;-87
2021/08/21 01:51:43;;;;;;;7.88;5.72;;;15.70;99.90;;;;;;5018387;28;20180;-87
2021/08/21 01:54:10;;;;;;;6.63;5.07;;;15.70;99.90;;;;;;5017801;28;20180;-87
2021/08/21 01:56:56;;;;;;;7.18;5.30;;;15.70;99.90;;;;;;5018578;28;20213;-86
2021/08/21 01:59:24;;;;;;;8.25;5.60;;;15.70;99.90;;;;;;5035993;28;20175;-86
2021/08/21 02:01:50;;;;;;;9.75;5.88;;;15.60;99.90;;;;;;5035797;28;20184;-86
2021/08/21 02:04:16;;;;;;;7.13;5.38;;;15.60;99.90;;;;;;5018846;28;20180;-86
2021/08/21 02:06:42;;;;;;;10.63;6.20;;;15.60;99.90;;;;;;5035735;28;20235;-87
2021/08/21 02:09:12;;;;;;;7.22;5.28;;;15.60;99.90;;;;;;5018165;28;20262;-87
2021/08/21 02:11:38;;;;;;;7.85;5.78;;;15.60;99.90;;;;;;5035721;28;20180;-87
2021/08/21 02:14:04;;;;;;;7.22;5.72;;;15.60;99.90;;;;;;5017681;28;20176;-87
2021/08/21 02:16:30;;;;;;;8.50;5.68;;;15.50;99.90;;;;;;5001540;28;20184;-87
2021/08/21 02:18:56;;;;;;;11.20;6.53;;;15.50;99.90;;;;;;5001698;28;20181;-88
2021/08/21 02:21:22;;;;;;;10.63;5.93;;;15.50;99.90;;;;;;5001465;28;20566;-86
2021/08/21 02:23:48;;;;;;;7.75;5.95;;;15.40;99.90;;;;;;5018178;28;20180;-86
2021/08/21 02:26:14;;;;;;;9.30;6.63;;;15.50;99.90;;;;;;5017620;28;20214;-86
2021/08/21 02:28:40;;;;;;;10.20;6.55;;;15.40;99.90;;;;;;5017491;28;20210;-87
2021/08/21 02:31:06;;;;;;;8.00;5.72;;;;;;;;;;5017363;28;20239;-87
2021/08/21 02:33:31;;;;;;;9.15;6.50;;;15.30;99.90;;;;;;5035173;28;20177;-87
2021/08/21 02:35:58;;;;;;;9.70;6.40;;;15.40;99.90;;;;;;5017706;28;20621;-88
2021/08/21 02:38:25;;;;;;;8.30;6.63;;;15.30;99.90;;;;;;5017389;28;20180;-87
2021/08/21 02:40:51;;;;;;;8.73;6.03;;;15.30;99.90;;;;;;5035084;28;20184;-87
2021/08/21 02:43:17;;;;;;;9.15;6.22;;;15.30;99.90;;;;;;5017649;28;20176;-87
2021/08/21 02:45:43;;;;;;;12.15;6.57;;;;;;;;;;5034884;28;20204;-86
2021/08/21 02:48:08;;;;;;;10.88;7.50;;;15.30;99.90;;;;;;5001316;28;20191;-87
2021/08/21 02:50:34;;;;;;;10.65;8.13;;;15.20;99.90;;;;;;5017522;28;20184;-86
2021/08/21 02:53:00;;;;;;;12.38;9.32;;;15.20;99.90;;;;;;5017168;28;20177;-85
2021/08/21 02:55:26;;;;;;;15.18;10.20;;;15.20;99.90;;;;;;5017213;28;20209;-85
2021/08/21 02:57:52;;;;;;;17.17;11.57;;;15.10;99.90;;;;;;5034639;28;20180;-85
2021/08/21 03:00:18;;;;;;;18.20;12.77;;;15.10;99.90;;;;;;5017089;28;20760;-86
2021/08/21 03:02:44;;;;;;;18.42;13.65;;;15.10;99.90;;;;;;5034675;28;20255;-86
2021/08/21 03:05:10;;;;;;;19.92;13.52;;;15.10;99.90;;;;;;5016896;28;20223;-86
2021/08/21 03:07:35;;;;;;;24.15;15.18;;;15.00;99.90;;;;;;5033499;28;20205;-86
2021/08/21 03:10:04;;;;;;;23.45;16.00;;;15.00;99.90;;;;;;5000481;28;20234;-86
2021/08/21 03:12:31;;;;;;;22.85;17.10;;;15.00;99.90;;;;;;5034547;28;20168;-86
2021/08/21 03:14:56;;;;;;;28.95;17.70;;;15.00;99.90;;;;;;5033083;28;20219;-86
2021/08/21 03:17:22;;;;;;;25.70;16.90;;;;;;;;;;5034551;28;20203;-85
2021/08/21 03:19:48;;;;;;;28.00;18.17;;;14.90;99.90;;;;;;5033986;28;20187;-85
2021/08/21 03:22:13;;;;;;;31.33;20.30;;;14.90;99.90;;;;;;5016765;28;20180;-85
2021/08/21 03:24:39;;;;;;;39.10;23.20;;;14.90;99.90;;;;;;5016313;28;20234;-85
2021/08/21 03:27:05;;;;;;;47.42;25.77;;;14.90;99.90;;;;;;5016348;28;20227;-86
2021/08/21 03:29:31;;;;;;;43.50;26.67;;;;;;;;;;5016520;28;20185;-85
2021/08/21 03:31:56;;;;;;;44.45;27.70;;;14.90;99.90;;;;;;4999877;28;20684;-85
2021/08/21 03:34:24;;;;;;;44.90;26.38;;;14.50;99.90;;;;;;5016906;28;20190;-86
2021/08/21 03:36:51;;;;;;;40.08;25.23;;;14.90;99.90;;;;;;5016631;28;20223;-91
2021/08/21 03:39:16;;;;;;;49.70;28.50;;;14.90;99.90;;;;;;5016699;28;20230;-86
2021/08/21 03:41:42;;;;;;;42.28;25.10;;;14.90;99.90;;;;;;5016385;28;20688;-86
2021/08/21 03:44:07;;;;;;;42.03;24.60;;;14.90;99.90;;;;;;5016093;28;20176;-85
2021/08/21 03:46:33;;;;;;;43.00;23.60;;;14.90;99.90;;;;;;5015776;28;20212;-85
2021/08/21 03:48:59;;;;;;;38.85;22.85;;;15.00;99.90;;;;;;5033621;28;20180;-86
2021/08/21 03:51:24;;;;;;;43.92;23.10;;;15.00;99.90;;;;;;5016310;28;20180;-85
2021/08/21 03:53:50;;;;;;;40.38;22.90;;;15.00;99.90;;;;;;4999756;28;20584;-85
2021/08/21 03:56:16;;;;;;;42.63;21.10;;;15.00;99.90;;;;;;5016568;28;20238;-86
2021/08/21 03:58:41;;;;;;;46.83;23.30;;;15.00;99.90;;;;;;5033581;28;20172;-85
2021/08/21 04:01:07;;;;;;;44.28;23.60;;;15.00;99.90;;;;;;5016292;28;20267;-86
2021/08/21 04:03:33;;;;;;;53.67;24.63;;;15.00;99.90;;;;;;5033656;28;20259;-86
2021/08/21 04:05:58;;;;;;;46.55;24.17;;;15.00;99.90;;;;;;5033809;28;20208;-86
2021/08/21 04:08:24;;;;;;;48.13;24.10;;;15.00;99.90;;;;;;5015922;28;20184;-86
2021/08/21 04:10:49;;;;;;;45.45;24.70;;;15.00;99.90;;;;;;5017439;28;20192;-86
2021/08/21 04:13:15;;;;;;;40.10;22.27;;;;;;;;;;5019672;28;20515;-86
2021/08/21 04:15:41;;;;;;;48.38;23.92;;;15.10;99.90;;;;;;5036071;28;20180;-85
2021/08/21 04:18:07;;;;;;;39.40;21.77;;;15.10;99.90;;;;;;5017046;28;20180;-86
2021/08/21 04:20:32;;;;;;;40.67;20.67;;;15.20;99.90;;;;;;5015895;28;20185;-86
2021/08/21 04:22:58;;;;;;;39.53;22.63;;;15.20;99.90;;;;;;5033644;28;20173;-86
2021/08/21 04:25:24;;;;;;;38.30;21.20;;;15.20;99.90;;;;;;5015591;28;20191;-86
2021/08/21 04:27:52;;;;;;;40.17;22.67;;;15.20;99.90;;;;;;5015419;28;20554;-87
2021/08/21 04:30:18;;;;;;;43.80;25.25;;;15.20;99.90;;;;;;5034711;28;20227;-85
2021/08/21 04:32:44;;;;;;;50.83;27.10;;;15.30;99.90;;;;;;5036154;28;20192;-86
2021/08/21 04:35:10;;;;;;;41.92;25.40;;;15.20;99.90;;;;;;5035109;28;20181;-86
2021/08/21 04:37:36;;;;;;;45.85;25.67;;;15.20;99.90;;;;;;5018491;28;20180;-86
2021/08/21 04:40:03;;;;;;;39.25;24.15;;;15.20;99.90;;;;;;5037230;28;20235;-87
2021/08/21 04:42:29;;;;;;;42.75;23.05;;;14.20;99.90;;;;;;5043510;28;20168;-86
2021/08/21 04:44:59;;;;;;;34.70;21.15;;;15.20;99.90;;;;;;5038768;28;20180;-87
2021/08/21 04:47:26;;;;;;;35.15;21.40;;;15.20;99.90;;;;;;5009880;28;20242;-86
2021/08/21 04:49:52;;;;;;;31.77;18.65;;;15.10;99.90;;;;;;5005528;28;20358;-86
2021/08/21 04:52:17;;;;;;;35.00;19.67;;;15.20;99.90;;;;;;5003601;28;20204;-86
2021/08/21 04:54:43;;;;;;;36.28;20.95;;;15.20;99.90;;;;;;5020547;28;20653;-86
2021/08/21 04:57:08;;;;;;;39.90;20.05;;;15.20;99.90;;;;;;5038707;28;20204;-86
2021/08/21 04:59:34;;;;;;;34.30;19.70;;;15.20;99.90;;;;;;5043485;28;20254;-86
2021/08/21 05:02:00;;;;;;;41.65;20.73;;;15.20;99.90;;;;;;5043262;28;20176;-87
2021/08/21 05:04:25;;;;;;;42.33;20.17;;;15.20;99.90;;;;;;5043586;28;20185;-87
2021/08/21 05:06:51;;;;;;;36.97;20.95;;;15.20;99.90;;;;;;5042938;28;20196;-86
2021/08/21 05:09:17;;;;;;;38.90;20.55;;;15.20;99.90;;;;;;5026989;28;20362;-85
2021/08/21 05:11:42;;;;;;;40.40;21.13;;;15.20;99.90;;;;;;5027028;28;20180;-85
2021/08/21 05:14:08;;;;;;;38.78;19.65;;;15.20;99.90;;;;;;5018934;28;20258;-86
2021/08/21 05:16:35;;;;;;;33.85;20.08;;;15.30;99.90;;;;;;5021330;28;20185;-87
2021/08/21 05:19:23;;;;;;;36.47;19.33;;;15.30;99.90;;;;;;5023505;28;20254;-87
2021/08/21 05:21:48;;;;;;;33.47;18.67;;;15.30;99.90;;;;;;5042372;28;20275;-86
2021/08/21 05:24:14;;;;;;;31.52;18.13;;;15.30;99.90;;;;;;5026589;28;20649;-88
2021/08/21 05:26:40;;;;;;;32.50;18.58;;;15.30;99.90;;;;;;5008596;28;20212;-86
2021/08/21 05:29:06;;;;;;;33.08;18.52;;;15.20;99.90;;;;;;5012964;28;20211;-90
2021/08/21 05:31:32;;;;;;;31.02;17.88;;;15.30;99.90;;;;;;5042893;28;20266;-86
2021/08/21 05:33:57;;;;;;;41.13;19.33;;;15.20;99.90;;;;;;5027136;28;20192;-87
2021/08/21 05:36:23;;;;;;;34.15;19.20;;;;;;;;;;5045786;28;20246;-86
2021/08/21 05:38:49;;;;;;;34.10;19.33;;;15.30;99.90;;;;;;5025670;28;20193;-83
2021/08/21 05:41:15;;;;;;;32.60;18.20;;;15.30;99.90;;;;;;5027451;28;20217;-84
2021/08/21 05:43:40;;;;;;;32.42;18.13;;;15.30;99.90;;;;;;5027585;28;20176;-85
2021/08/21 05:46:06;;;;;;;33.35;18.40;;;15.30;99.90;;;;;;5027943;28;20219;-84
2021/08/21 05:48:32;;;;;;;35.47;18.73;;;15.30;99.90;;;;;;5041974;28;20248;-87
2021/08/21 05:50:57;;;;;;;33.22;18.45;;;15.40;99.90;;;;;;5041756;28;20180;-87
2021/08/21 05:53:23;;;;;;;36.72;18.00;;;15.40;99.90;;;;;;5026632;28;20193;-86
2021/08/21 05:55:49;;;;;;;34.47;18.00;;;15.50;99.90;;;;;;5027441;28;20243;-87
2021/08/21 05:58:14;;;;;;;33.22;17.70;;;15.50;99.90;;;;;;5025893;28;20185;-85
2021/08/21 06:00:40;;;;;;;29.17;16.13;;;15.50;99.90;;;;;;5020461;28;20641;-86
2021/08/21 06:03:05;;;;;;;26.77;16.15;;;15.50;99.90;;;;;;5010735;28;20176;-85
2021/08/21 06:05:31;;;;;;;28.85;15.25;;;15.50;99.90;;;;;;5043352;28;20208;-85
2021/08/21 06:07:58;;;;;;;26.35;14.95;;;15.50;99.90;;;;;;5026154;28;20665;-85
2021/08/21 06:10:23;;;;;;;26.95;15.43;;;15.60;99.90;;;;;;5041168;28;20177;-84
2021/08/21 06:12:49;;;;;;;25.90;15.32;;;15.60;99.90;;;;;;5017095;28;20203;-88
2021/08/21 06:15:15;;;;;;;26.45;14.50;;;15.60;99.90;;;;;;5000589;28;20619;-88
2021/08/21 06:17:40;;;;;;;27.05;15.88;;;15.60;99.90;;;;;;5035041;28;20176;-86
2021/08/21 06:20:06;;;;;;;30.67;15.88;;;15.60;99.90;;;;;;5000332;28;20185;-86
2021/08/21 06:22:32;;;;;;;26.92;15.57;;;15.70;99.90;;;;;;5016515;28;20169;-88
2021/08/21 06:24:58;;;;;;;30.70;16.75;;;15.70;99.90;;;;;;5016322;28;20183;-91
2021/08/21 06:27:24;;;;;;;31.85;17.02;;;15.30;99.90;;;;;;5016970;28;20228;-88
2021/08/21 06:29:50;;;;;;;29.98;16.80;;;;;;;;;;5016434;28;20210;-88
2021/08/21 06:32:15;;;;;;;29.27;16.45;;;15.80;99.90;;;;;;5016701;28;20231;-87
2021/08/21 06:34:41;;;;;;;25.80;16.38;;;15.90;99.90;;;;;;5016914;28;20238;-87
2021/08/21 06:37:08;;;;;;;25.48;15.45;;;16.00;99.90;;;;;;5016227;28;20188;-87
2021/08/21 06:39:34;;;;;;;24.92;16.23;;;16.10;99.90;;;;;;5033971;28;20179;-88
2021/08/21 06:42:00;;;;;;;24.33;15.77;;;16.10;99.90;;;;;;4999731;28;20180;-86
2021/08/21 06:44:26;;;;;;;23.15;14.15;;;16.20;99.90;;;;;;5033800;28;20172;-86
2021/08/21 06:46:52;;;;;;;22.95;14.32;;;16.30;99.90;;;;;;5016018;28;20742;-86
2021/08/21 06:49:17;;;;;;;22.92;14.73;;;16.30;99.90;;;;;;5033386;28;20664;-86
2021/08/21 06:51:43;;;;;;;26.35;14.30;;;16.30;99.90;;;;;;5015780;28;20180;-85
2021/08/21 06:54:09;;;;;;;24.83;14.43;;;16.40;99.90;;;;;;5016205;28;20184;-87
2021/08/21 06:56:34;;;;;;;24.45;13.80;;;16.40;99.90;;;;;;5016028;28;20192;-86
2021/08/21 06:59:00;;;;;;;23.85;15.52;;;16.40;99.90;;;;;;5016168;28;20590;-85
2021/08/21 07:01:27;;;;;;;23.95;15.15;;;16.50;99.90;;;;;;5035075;28;20177;-86
2021/08/21 07:03:53;;;;;;;23.60;15.93;;;16.50;99.90;;;;;;4983952;28;20739;-87
2021/08/21 07:06:18;;;;;;;28.23;16.60;;;16.60;99.90;;;;;;4998774;28;20204;-84
2021/08/21 07:08:44;;;;;;;26.98;15.75;;;16.70;99.90;;;;;;5034898;28;20672;-85
2021/08/21 07:11:10;;;;;;;25.10;16.70;;;16.70;99.90;;;;;;5017311;28;20271;-86
2021/08/21 07:13:35;;;;;;;23.95;15.07;;;16.80;99.90;;;;;;4998815;28;20189;-87
2021/08/21 07:16:01;;;;;;;25.15;16.05;;;16.80;99.90;;;;;;5015443;28;20184;-86
2021/08/21 07:18:27;;;;;;;31.80;17.75;;;;;;;;;;5015679;28;20184;-86
2021/08/21 07:20:52;;;;;;;27.73;18.02;;;16.80;99.90;;;;;;5016148;28;20187;-86
2021/08/21 07:23:18;;;;;;;31.52;19.38;;;16.80;99.90;;;;;;5002600;28;20184;-85
2021/08/21 07:25:44;;;;;;;30.60;18.83;;;;;;;;;;5017505;28;20216;-86
2021/08/21 07:28:10;;;;;;;31.38;20.52;;;17.20;99.90;;;;;;5017754;28;20544;-85
2021/08/21 07:30:36;;;;;;;27.88;19.27;;;17.10;99.90;;;;;;4985552;28;20228;-85
2021/08/21 07:33:02;;;;;;;30.15;20.30;;;17.40;99.90;;;;;;5035327;28;20181;-85
2021/08/21 07:35:28;;;;;;;32.33;21.42;;;17.50;99.90;;;;;;5000792;28;20185;-85
2021/08/21 07:37:55;;;;;;;33.05;20.55;;;17.50;99.90;;;;;;5037007;28;20201;-88
2021/08/21 07:40:22;;;;;;;27.58;18.85;;;17.50;99.90;;;;;;5005613;28;20663;-85
2021/08/21 07:42:47;;;;;;;31.55;20.55;;;17.60;99.90;;;;;;5020188;28;20346;-87
2021/08/21 07:45:13;;;;;;;29.88;19.35;;;17.70;99.90;;;;;;5021018;28;20638;-88
2021/08/21 07:47:39;;;;;;;28.17;19.15;;;17.70;99.90;;;;;;5002681;28;20560;-86
2021/08/21 07:50:06;;;;;;;28.63;19.80;;;17.80;99.90;;;;;;4999599;28;20177;-85
2021/08/21 07:52:32;;;;;;;31.63;19.88;;;17.80;99.90;;;;;;5021036;28;20184;-86
2021/08/21 07:54:57;;;;;;;29.27;19.75;;;17.90;99.90;;;;;;5019816;28;20180;-86
2021/08/21 07:57:24;;;;;;;29.05;19.38;;;17.90;99.90;;;;;;5009083;28;20579;-87
2021/08/21 07:59:50;;;;;;;31.73;20.40;;;18.00;99.90;;;;;;5002886;28;20180;-85
2021/08/21 08:02:15;;;;;;;30.08;19.77;;;18.00;99.90;;;;;;5017418;28;20234;-85
2021/08/21 08:04:41;;;;;;;32.92;22.25;;;18.00;99.90;;;;;;5002801;28;20196;-84
2021/08/21 08:07:06;;;;;;;35.47;22.33;;;18.10;99.90;;;;;;5003399;28;20278;-84
2021/08/21 08:09:32;;;;;;;33.05;21.77;;;18.20;99.90;;;;;;5000961;28;20185;-85
2021/08/21 08:11:58;;;;;;;33.42;21.63;;;18.30;99.90;;;;;;5016876;28;20244;-86
2021/08/21 08:14:23;;;;;;;38.65;23.88;;;18.50;99.90;;;;;;5033904;28;20191;-85
2021/08/21 08:16:49;;;;;;;34.53;23.02;;;18.60;99.90;;;;;;5018845;28;20187;-85
2021/08/21 08:19:15;;;;;;;38.53;24.88;;;18.60;99.90;;;;;;5003391;28;20173;-86
2021/08/21 08:21:41;;;;;;;43.60;27.13;;;18.50;99.90;;;;;;5002898;28;20217;-86
2021/08/21 08:24:07;;;;;;;49.20;31.73;;;18.50;99.90;;;;;;5022913;28;20260;-86
2021/08/21 08:26:33;;;;;;;39.17;24.35;;;18.60;99.90;;;;;;5022782;28;20311;-86
2021/08/21 08:28:58;;;;;;;36.28;23.70;;;18.70;99.90;;;;;;5002370;28;20617;-86
2021/08/21 08:31:24;;;;;;;38.60;24.42;;;18.90;99.90;;;;;;5016740;28;20331;-86
2021/08/21 08:33:50;;;;;;;33.38;22.88;;;18.90;99.90;;;;;;5018241;28;20188;-86
2021/08/21 08:36:15;;;;;;;34.78;23.00;;;19.00;99.90;;;;;;5017260;28;20188;-86
2021/08/21 08:38:41;;;;;;;34.45;22.58;;;19.10;99.90;;;;;;5001287;28;20176;-86
2021/08/21 08:41:11;;;;;;;38.25;24.02;;;19.00;99.90;;;;;;5015775;28;20180;-84
2021/08/21 08:43:37;;;;;;;32.30;21.02;;;18.90;99.90;;;;;;5032842;28;20259;-84
2021/08/21 08:46:04;;;;;;;34.22;22.40;;;18.70;99.90;;;;;;5015209;28;20208;-86
2021/08/21 08:48:34;;;;;;;31.92;20.20;;;18.50;99.90;;;;;;5015906;28;20184;-84
2021/08/21 08:51:00;;;;;;;31.33;20.80;;;18.50;99.90;;;;;;5034079;28;20165;-84
2021/08/21 08:53:26;;;;;;;34.58;20.45;;;18.60;99.90;;;;;;5032558;28;20168;-83
2021/08/21 08:55:51;;;;;;;35.75;20.30;;;18.70;99.90;;;;;;5033665;28;20189;-86
2021/08/21 08:58:17;;;;;;;34.42;19.88;;;18.80;99.90;;;;;;4999068;28;20555;-85
2021/08/21 09:00:43;;;;;;;35.22;20.20;;;18.90;99.90;;;;;;5033808;28;20666;-87
2021/08/21 09:03:22;;;;;;;50.80;23.30;;;19.00;99.90;;;;;;4999104;28;20536;-86
2021/08/21 09:05:49;;;;;;;34.30;22.05;;;19.20;99.90;;;;;;5022051;28;20180;-88
2021/08/21 09:08:26;;;;;;;34.42;21.35;;;19.20;99.90;;;;;;5022642;28;20571;-88
2021/08/21 09:10:52;;;;;;;35.75;22.60;;;19.20;99.90;;;;;;5040438;28;20196;-87
2021/08/21 09:13:19;;;;;;;37.13;23.92;;;19.20;99.90;;;;;;5022677;28;20710;-86
2021/08/21 09:15:50;;;;;;;33.78;20.52;;;19.30;99.90;;;;;;5020663;28;20192;-86
2021/08/21 09:18:21;;;;;;;31.70;21.05;;;19.30;99.90;;;;;;5018780;28;20586;-85
2021/08/21 09:20:47;;;;;;;31.13;19.70;;;19.50;99.90;;;;;;5018993;28;20277;-86
2021/08/21 09:23:17;;;;;;;22.52;15.73;;;19.60;99.90;;;;;;5022913;28;20286;-86
2021/08/21 09:25:43;;;;;;;23.23;15.90;;;19.70;99.90;;;;;;5035570;28;20183;-85
2021/08/21 09:28:26;;;;;;;25.90;17.55;;;19.70;99.90;;;;;;5036403;28;20173;-86
2021/08/21 09:31:14;;;;;;;29.83;19.00;;;19.70;99.90;;;;;;5038140;28;20228;-85
2021/08/21 09:33:55;;;;;;;28.58;19.63;;;19.80;99.90;;;;;;5019661;28;20176;-84
2021/08/21 09:36:30;;;;;;;30.67;20.00;;;19.90;99.90;;;;;;5024176;28;20194;-86
2021/08/21 09:38:57;;;;;;;31.58;19.35;;;19.80;99.90;;;;;;5019327;28;20180;-86
2021/08/21 09:41:23;;;;;;;29.52;19.13;;;19.70;99.90;;;;;;5019109;28;20180;-86
2021/08/21 09:44:06;;;;;;;27.50;17.88;;;19.60;99.90;;;;;;5034575;28;20187;-83
2021/08/21 09:46:32;;;;;;;30.90;20.05;;;19.50;99.90;;;;;;5021285;28;20208;-85
2021/08/21 09:49:02;;;;;;;33.72;21.60;;;19.50;99.90;;;;;;5042127;28;20226;-86
2021/08/21 09:51:40;;;;;;;31.92;20.90;;;19.60;99.90;;;;;;5024220;28;20185;-87
2021/08/21 09:54:20;;;;;;;29.27;18.38;;;19.60;99.90;;;;;;5040628;28;20167;-87
2021/08/21 09:56:55;;;;;;;24.90;16.58;;;19.70;99.90;;;;;;5038887;28;20196;-85
2021/08/21 09:59:42;;;;;;;28.67;17.88;;;19.90;99.90;;;;;;5036356;28;20160;-86
2021/08/21 10:02:13;;;;;;;27.17;18.00;;;19.80;99.90;;;;;;5021295;28;20176;-86
2021/08/21 10:04:43;;;;;;;27.65;20.08;;;19.70;99.90;;;;;;5020417;28;20191;-86
2021/08/21 10:07:18;;;;;;;36.25;22.77;;;19.70;99.90;;;;;;5042413;28;20236;-89
2021/08/21 10:09:44;;;;;;;33.13;21.88;;;19.90;99.90;;;;;;5043597;28;20168;-89
2021/08/21 10:12:13;;;;;;;33.53;18.85;;;20.10;99.90;;;;;;5028985;28;20173;-88
2021/08/21 10:14:42;;;;;;;27.83;17.10;;;20.30;99.90;;;;;;5051512;28;20177;-89
2021/08/21 10:17:09;;;;;;;28.38;19.00;;;20.50;99.90;;;;;;5025541;28;20177;-86
2021/08/21 10:19:38;;;;;;;31.40;21.48;;;20.60;99.90;;;;;;5044759;28;20223;-88
2021/08/21 10:22:04;;;;;;;23.75;17.00;;;20.60;99.90;;;;;;5028156;28;20432;-88
2021/08/21 10:24:36;;;;;;;29.08;17.05;;;20.50;99.90;;;;;;5041420;28;20203;-87
2021/08/21 10:27:12;;;;;;;27.65;17.33;;;20.50;99.90;;;;;;5039147;28;20246;-86
2021/08/21 10:29:38;;;;;;;27.50;17.05;;;20.60;99.90;;;;;;5021340;28;20184;-87
2021/08/21 10:32:04;;;;;;;22.80;15.15;;;20.80;99.90;;;;;;5008558;28;20262;-88
2021/08/21 10:34:51;;;;;;;25.58;15.70;;;20.90;99.90;;;;;;5028891;28;20177;-89
2021/08/21 10:37:40;;;;;;;20.90;13.35;;;20.90;99.90;;;;;;5022735;28;20187;-86
2021/08/21 10:40:27;;;;;;;31.67;13.15;;;20.80;99.90;;;;;;5018516;28;20185;-87
2021/08/21 10:43:01;;;;;;;15.57;11.15;;;21.00;99.90;;;;;;5020901;28;20204;-86
2021/08/21 10:45:42;;;;;;;18.42;11.85;;;21.00;99.90;;;;;;5019504;28;20181;-87
2021/08/21 10:48:21;;;;;;;16.08;11.50;;;21.20;99.90;;;;;;5019347;28;20215;-87
2021/08/21 10:50:49;;;;;;;15.88;11.40;;;21.30;99.90;;;;;;5035879;28;20190;-86
2021/08/21 10:53:41;;;;;;;11.90;9.50;;;21.10;99.90;;;;;;5039692;28;20181;-86
2021/08/21 10:56:27;;;;;;;16.17;9.93;;;20.90;99.90;;;;;;5020833;28;20223;-87
2021/08/21 10:58:55;;;;;;;14.48;10.32;;;21.00;99.90;;;;;;5049511;28;20180;-88
2021/08/21 11:01:23;;;;;;;15.95;10.05;;;21.10;99.90;;;;;;5057249;23;20235;-89
2021/08/21 11:03:50;;;;;;;17.02;12.25;;;21.20;99.90;;;;;;5062138;28;20168;-88
2021/08/21 11:06:16;;;;;;;19.80;13.43;;;21.30;99.90;;;;;;5056303;28;20208;-90
2021/08/21 11:08:42;;;;;;;24.35;15.05;;;21.20;99.90;;;;;;5066584;28;20187;-89
2021/08/21 11:11:08;;;;;;;21.13;14.32;;;;;;;;;;5054688;28;20180;-89
2021/08/21 11:13:55;;;;;;;20.13;14.05;;;20.90;99.90;;;;;;5047016;28;20652;-88
2021/08/21 11:16:22;;;;;;;17.08;10.10;;;20.90;99.90;;;;;;5054952;28;20202;-87
2021/08/21 11:18:50;;;;;;;14.10;11.32;;;21.00;99.90;;;;;;5037588;28;20202;-86
2021/08/21 11:21:36;;;;;;;18.60;12.48;;;21.00;99.90;;;;;;5036384;28;20175;-86
2021/08/21 11:24:21;;;;;;;23.35;13.70;;;21.00;99.90;;;;;;5036673;28;20171;-87
2021/08/21 11:26:47;;;;;;;20.17;13.10;;;21.20;99.90;;;;;;5025608;28;20557;-87
2021/08/21 11:29:14;;;;;;;16.38;12.02;;;21.50;99.90;;;;;;5034792;28;20264;-87
2021/08/21 11:31:54;;;;;;;16.90;9.82;;;21.50;99.90;;;;;;5022638;28;20282;-87
2021/08/21 11:34:21;;;;;;;14.23;9.35;;;21.60;99.90;;;;;;5034250;28;20177;-87
2021/08/21 11:36:48;;;;;;;12.40;8.40;;;21.40;99.90;;;;;;5020171;28;20196;-86
2021/08/21 11:39:14;;;;;;;11.57;8.90;;;21.40;99.90;;;;;;5047809;28;20268;-87
2021/08/21 11:41:40;;;;;;;10.85;8.35;;;21.30;99.90;;;;;;5023606;28;20266;-86
2021/08/21 11:44:06;;;;;;;12.43;8.75;;;21.40;99.90;;;;;;5034234;28;20179;-86
2021/08/21 11:46:32;;;;;;;10.95;8.40;;;21.50;99.90;;;;;;5051788;28;20218;-88
2021/08/21 11:49:07;;;;;;;9.98;6.72;;;21.60;99.90;;;;;;5018000;28;20188;-86
2021/08/21 11:51:38;;;;;;;11.68;6.60;;;21.80;99.90;;;;;;5021992;28;20189;-87
2021/08/21 11:54:04;;;;;;;8.80;6.72;;;21.80;99.90;;;;;;5027213;28;20180;-87
2021/08/21 11:56:30;;;;;;;8.65;6.57;;;21.80;99.90;;;;;;5004335;28;20195;-87
2021/08/21 11:59:08;;;;;;;8.30;6.22;;;21.50;99.90;;;;;;5033951;28;20179;-86
2021/08/21 12:01:36;;;;;;;7.88;5.68;;;21.50;99.90;;;;;;5016498;28;20286;-87
2021/08/21 12:06:32;;;;;;;5.78;5.10;;;21.40;99.90;;;;;;5028045;28;20232;-88
2021/08/21 12:09:09;;;;;;;6.07;5.13;;;21.60;99.90;;;;;;5008431;28;20172;-88
2021/08/21 12:11:35;;;;;;;10.60;5.63;;;21.70;99.90;;;;;;5033764;28;20176;-87
2021/08/21 12:14:01;;;;;;;5.70;4.40;;;21.80;99.90;;;;;;5017459;28;20230;-86
2021/08/21 12:16:30;;;;;;;5.47;4.32;;;21.80;99.90;;;;;;5038584;28;20196;-87
2021/08/21 12:18:56;;;;;;;6.03;4.25;;;21.70;99.90;;;;;;5027893;28;20550;-88
2021/08/21 12:21:23;;;;;;;5.22;4.05;;;21.60;99.90;;;;;;5015762;28;20219;-88
2021/08/21 12:23:51;;;;;;;6.00;4.75;;;21.40;99.90;;;;;;5045956;28;20172;-89
2021/08/21 12:26:37;;;;;;;7.93;4.30;;;21.30;99.90;;;;;;5016939;28;20219;-89
2021/08/21 12:29:26;;;;;;;5.03;4.20;;;21.40;99.90;;;;;;5036853;28;20174;-89
2021/08/21 12:31:53;;;;;;;5.22;3.78;;;21.60;99.90;;;;;;5016654;28;20262;-88
2021/08/21 12:34:20;;;;;;;6.93;3.97;;;22.00;99.90;;;;;;5020146;28;20180;-89
2021/08/21 12:36:47;;;;;;;4.82;3.92;;;22.30;99.90;;;;;;5040620;28;20747;-90
2021/08/21 12:39:21;;;;;;;6.25;4.60;;;22.60;99.90;;;;;;5028387;28;20176;-89
2021/08/21 12:41:52;;;;;;;4.60;4.00;;;22.50;99.90;;;;;;5040705;28;20636;-87
2021/08/21 12:44:31;;;;;;;4.32;3.58;;;24.70;99.90;;;;;;5051102;28;20550;-88